createdAt,value
2018-12-29T00:01:14.311Z,62.03
2018-12-29T00:03:43.054Z,65.27
2018-12-29T00:06:11.796Z,61.00
2018-12-29T00:08:40.494Z,63.27
2018-12-29T00:11:09.217Z,62.43
2018-12-29T00:13:37.941Z,60.07
2018-12-29T00:16:06.685Z,60.47
2018-12-29T00:18:35.405Z,65.57
2018-12-29T00:21:04.171Z,59.50
2018-12-29T00:23:32.861Z,61.60
2018-12-29T00:26:01.615Z,62.30
2018-12-29T00:28:30.307Z,62.13
2018-12-29T00:30:59.021Z,65.07
2018-12-29T00:33:27.717Z,64.03
2018-12-29T00:35:56.512Z,65.70
2018-12-29T00:38:25.218Z,62.70
2018-12-29T00:40:53.934Z,58.50
2018-12-29T00:43:22.625Z,63.30
2018-12-29T00:45:51.325Z,59.80
2018-12-29T00:48:20.022Z,58.63
2018-12-29T00:50:48.768Z,62.07
2018-12-29T00:53:17.449Z,58.27
2018-12-29T00:55:46.153Z,65.63
2018-12-29T00:58:14.943Z,62.60
2018-12-29T01:00:43.664Z,59.20
2018-12-29T01:03:12.383Z,58.90
2018-12-29T01:05:41.069Z,65.87
2018-12-29T01:08:09.786Z,57.27
2018-12-29T01:10:38.501Z,65.80
2018-12-29T01:13:07.223Z,62.07
2018-12-29T01:15:35.915Z,62.30
2018-12-29T01:18:04.641Z,60.93
2018-12-29T01:20:33.333Z,66.63
2018-12-29T01:23:02.056Z,62.67
2018-12-29T01:25:30.759Z,64.47
2018-12-29T01:27:59.533Z,61.97
2018-12-29T01:30:28.224Z,58.60
2018-12-29T01:32:56.954Z,63.27
2018-12-29T01:35:25.659Z,62.83
2018-12-29T01:37:54.486Z,61.77
2018-12-29T01:40:23.176Z,62.97
2018-12-29T01:42:51.894Z,60.00
2018-12-29T01:45:20.616Z,63.57
2018-12-29T01:47:50.312Z,57.17
2018-12-29T01:50:19.021Z,56.80
2018-12-29T01:52:47.770Z,55.97
2018-12-29T01:55:16.466Z,63.03
2018-12-29T01:57:45.160Z,65.37
2018-12-29T02:00:13.950Z,59.40
2018-12-29T02:02:42.651Z,57.80
2018-12-29T02:05:12.209Z,58.73
2018-12-29T02:07:40.992Z,59.23
2018-12-29T02:10:09.707Z,61.30
2018-12-29T02:12:38.411Z,57.43
2018-12-29T02:15:07.127Z,63.47
2018-12-29T02:17:35.810Z,57.63
2018-12-29T02:20:05.161Z,60.57
2018-12-29T02:22:33.853Z,63.13
2018-12-29T02:25:02.652Z,58.53
2018-12-29T02:27:31.350Z,57.17
2018-12-29T02:30:00.114Z,59.53
2018-12-29T02:32:28.929Z,58.13
2018-12-29T02:34:57.612Z,56.10
2018-12-29T02:37:26.344Z,61.33
2018-12-29T02:39:55.021Z,59.60
2018-12-29T02:42:23.750Z,63.13
2018-12-29T02:44:52.445Z,58.83
2018-12-29T02:47:21.156Z,60.83
2018-12-29T02:49:49.850Z,57.20
2018-12-29T02:52:18.570Z,59.90
2018-12-29T02:54:47.270Z,55.83
2018-12-29T02:57:15.986Z,54.50
2018-12-29T02:59:44.678Z,54.00
2018-12-29T03:02:13.443Z,53.13
2018-12-29T03:04:42.139Z,55.63
2018-12-29T03:07:10.890Z,57.00
2018-12-29T03:09:39.595Z,60.27
2018-12-29T03:12:08.387Z,56.23
2018-12-29T03:14:37.084Z,67.07
2018-12-29T03:17:05.822Z,59.03
2018-12-29T03:19:34.597Z,62.07
2018-12-29T03:22:03.364Z,57.57
2018-12-29T03:24:32.217Z,58.33
2018-12-29T03:27:00.926Z,60.93
2018-12-29T03:29:29.642Z,57.40
2018-12-29T03:31:58.356Z,62.87
2018-12-29T03:34:27.077Z,62.07
2018-12-29T03:36:55.777Z,60.90
2018-12-29T03:39:24.490Z,58.43
2018-12-29T03:41:53.343Z,60.33
2018-12-29T03:44:22.140Z,66.00
2018-12-29T03:46:50.823Z,62.00
2018-12-29T03:49:19.549Z,58.67
2018-12-29T03:51:48.242Z,64.20
2018-12-29T03:54:16.987Z,64.13
2018-12-29T03:56:45.738Z,62.30
2018-12-29T03:59:14.454Z,68.03
2018-12-29T04:01:43.141Z,65.23
2018-12-29T04:04:11.850Z,55.90
2018-12-29T04:06:40.549Z,61.73
2018-12-29T04:09:31.864Z,55.13
2018-12-29T04:12:06.368Z,60.40
2018-12-29T04:14:36.030Z,58.27
2018-12-29T04:17:05.097Z,63.27
2018-12-29T04:19:33.797Z,64.70
2018-12-29T04:22:02.490Z,63.73
2018-12-29T04:24:31.211Z,58.80
2018-12-29T04:26:59.888Z,62.33
2018-12-29T04:29:28.605Z,59.37
2018-12-29T04:31:57.301Z,57.63
2018-12-29T04:34:26.029Z,64.67
2018-12-29T04:36:54.718Z,60.43
2018-12-29T04:39:23.421Z,58.70
2018-12-29T04:41:52.141Z,59.23
2018-12-29T04:44:20.869Z,68.00
2018-12-29T04:46:49.675Z,63.40
2018-12-29T04:49:18.368Z,61.27
2018-12-29T04:51:47.081Z,60.87
2018-12-29T04:54:15.780Z,60.07
2018-12-29T04:56:44.493Z,62.73
2018-12-29T04:59:13.198Z,62.13
2018-12-29T05:01:41.925Z,58.53
2018-12-29T05:04:10.617Z,72.93
2018-12-29T05:06:39.337Z,64.10
2018-12-29T05:09:08.037Z,67.13
2018-12-29T05:11:36.754Z,68.03
2018-12-29T05:14:05.452Z,64.50
2018-12-29T05:16:34.246Z,70.43
2018-12-29T05:19:02.947Z,62.80
2018-12-29T05:21:31.652Z,65.73
2018-12-29T05:24:00.370Z,67.07
2018-12-29T05:26:29.057Z,63.30
2018-12-29T05:28:57.772Z,67.83
2018-12-29T05:31:26.512Z,62.50
2018-12-29T05:33:55.200Z,57.50
2018-12-29T05:36:23.897Z,69.87
2018-12-29T05:38:52.609Z,66.50
2018-12-29T05:41:21.301Z,65.93
2018-12-29T05:43:50.013Z,67.77
2018-12-29T05:46:20.557Z,66.03
2018-12-29T05:48:49.136Z,65.93
2018-12-29T05:51:17.834Z,69.67
2018-12-29T05:53:46.541Z,60.00
2018-12-29T05:56:15.233Z,62.57
2018-12-29T05:58:43.966Z,67.20
2018-12-29T06:01:12.651Z,63.30
2018-12-29T06:03:41.369Z,60.23
2018-12-29T06:06:10.059Z,65.83
2018-12-29T06:08:38.842Z,63.17
2018-12-29T06:11:07.554Z,65.03
2018-12-29T06:13:36.280Z,57.27
2018-12-29T06:16:04.969Z,61.57
2018-12-29T06:18:33.688Z,64.47
2018-12-29T06:21:02.398Z,61.63
2018-12-29T06:23:31.136Z,58.37
2018-12-29T06:25:59.809Z,58.80
2018-12-29T06:28:42.321Z,55.30
2018-12-29T06:31:11.026Z,62.77
2018-12-29T06:33:39.719Z,57.00
2018-12-29T06:36:08.437Z,53.77
2018-12-29T06:38:37.137Z,59.93
2018-12-29T06:41:05.865Z,64.57
2018-12-29T06:43:34.562Z,59.23
2018-12-29T06:46:03.277Z,59.87
2018-12-29T06:48:31.966Z,57.37
2018-12-29T06:51:00.688Z,57.03
2018-12-29T06:53:29.457Z,57.40
2018-12-29T06:55:58.183Z,60.97
2018-12-29T06:58:26.882Z,60.53
2018-12-29T07:00:55.614Z,57.57
2018-12-29T07:03:24.379Z,63.27
2018-12-29T07:05:53.092Z,60.33
2018-12-29T07:08:21.786Z,59.93
2018-12-29T07:10:50.504Z,57.97
2018-12-29T07:13:19.185Z,58.60
2018-12-29T07:15:47.902Z,58.87
2018-12-29T07:18:16.623Z,55.07
2018-12-29T07:20:45.310Z,64.40
2018-12-29T07:23:14.024Z,61.27
2018-12-29T07:25:42.721Z,55.73
2018-12-29T07:28:11.427Z,58.20
2018-12-29T07:30:40.130Z,62.33
2018-12-29T07:33:08.861Z,60.50
2018-12-29T07:35:37.621Z,57.50
2018-12-29T07:38:06.333Z,55.33
2018-12-29T07:40:35.029Z,61.73
2018-12-29T07:43:03.765Z,60.20
2018-12-29T07:45:32.455Z,59.20
2018-12-29T07:48:01.174Z,55.23
2018-12-29T07:50:29.866Z,58.37
2018-12-29T07:52:58.589Z,62.43
2018-12-29T07:55:27.290Z,63.00
2018-12-29T07:57:56.002Z,62.67
2018-12-29T08:00:24.777Z,56.30
2018-12-29T08:02:53.502Z,63.13
2018-12-29T08:05:22.278Z,59.17
2018-12-29T08:07:50.960Z,60.17
2018-12-29T08:10:19.681Z,55.20
2018-12-29T08:12:48.375Z,54.33
2018-12-29T08:15:17.093Z,59.17
2018-12-29T08:17:45.794Z,61.57
2018-12-29T08:20:14.523Z,59.83
2018-12-29T08:22:43.223Z,58.73
2018-12-29T08:25:12.001Z,55.17
2018-12-29T08:27:40.772Z,59.10
2018-12-29T08:30:09.513Z,62.83
2018-12-29T08:32:38.233Z,58.40
2018-12-29T08:35:06.954Z,60.63
2018-12-29T08:37:35.649Z,57.20
2018-12-29T08:40:04.432Z,61.50
2018-12-29T08:42:33.189Z,61.20
2018-12-29T08:45:01.909Z,60.13
2018-12-29T08:47:30.605Z,59.30
2018-12-29T08:49:59.331Z,57.13
2018-12-29T08:52:28.017Z,63.97
2018-12-29T08:54:56.742Z,55.20
2018-12-29T08:57:25.450Z,60.23
2018-12-29T08:59:54.188Z,59.47
2018-12-29T09:02:22.876Z,55.30
2018-12-29T09:04:51.588Z,55.63
2018-12-29T09:07:20.305Z,62.67
2018-12-29T09:09:49.006Z,49.13
2018-12-29T09:12:17.727Z,55.87
2018-12-29T09:14:46.428Z,56.50
2018-12-29T09:17:15.149Z,66.63
2018-12-29T09:19:43.854Z,68.03
2018-12-29T09:22:12.585Z,56.30
2018-12-29T09:24:41.342Z,55.97
2018-12-29T09:27:10.079Z,60.97
2018-12-29T09:29:38.779Z,57.20
2018-12-29T09:32:07.481Z,54.10
2018-12-29T09:34:36.184Z,50.57
2018-12-29T09:37:04.911Z,55.43
2018-12-29T09:39:33.610Z,51.63
2018-12-29T09:42:02.338Z,54.23
2018-12-29T09:44:31.093Z,57.43
2018-12-29T09:46:59.881Z,53.17
2018-12-29T09:49:28.672Z,51.83
2018-12-29T09:51:57.365Z,49.07
2018-12-29T09:54:26.132Z,54.40
2018-12-29T09:56:54.854Z,57.43
2018-12-29T09:59:23.576Z,55.63
2018-12-29T10:01:52.275Z,112.50
2018-12-29T10:04:21.015Z,60.60
2018-12-29T10:06:49.725Z,55.43
2018-12-29T10:09:18.429Z,54.00
2018-12-29T10:11:47.122Z,55.37
2018-12-29T10:14:15.844Z,61.80
2018-12-29T10:16:44.545Z,55.87
2018-12-29T10:19:13.269Z,59.77
2018-12-29T10:21:41.993Z,54.13
2018-12-29T10:24:10.737Z,58.40
2018-12-29T10:26:39.432Z,56.77
2018-12-29T10:29:08.141Z,56.77
2018-12-29T10:31:36.847Z,55.33
2018-12-29T10:34:05.648Z,58.40
2018-12-29T10:36:34.388Z,59.20
2018-12-29T10:39:05.256Z,54.60
2018-12-29T10:41:34.041Z,56.13
2018-12-29T10:44:02.746Z,54.83
2018-12-29T10:46:31.488Z,53.83
2018-12-29T10:49:00.252Z,58.77
2018-12-29T10:51:28.984Z,60.50
2018-12-29T10:53:57.740Z,58.37
2018-12-29T10:56:26.462Z,53.33
2018-12-29T10:58:55.172Z,56.53
2018-12-29T11:01:23.913Z,54.93
2018-12-29T11:03:52.604Z,51.13
2018-12-29T11:06:21.413Z,47.37
2018-12-29T11:08:50.214Z,50.13
2018-12-29T11:11:18.984Z,49.00
2018-12-29T11:13:47.670Z,52.23
2018-12-29T11:16:16.775Z,46.60
2018-12-29T11:18:45.479Z,48.00
2018-12-29T11:21:14.207Z,46.93
2018-12-29T11:23:42.908Z,45.87
2018-12-29T11:26:11.678Z,50.20
2018-12-29T11:28:40.409Z,42.77
2018-12-29T11:31:09.115Z,45.00
2018-12-29T11:33:37.846Z,42.37
2018-12-29T11:36:06.529Z,45.13
2018-12-29T11:38:35.243Z,41.13
2018-12-29T11:41:03.964Z,42.50
2018-12-29T11:43:32.712Z,45.50
2018-12-29T11:46:01.397Z,45.67
2018-12-29T11:48:30.138Z,43.77
2018-12-29T11:50:58.914Z,43.83
2018-12-29T11:53:27.647Z,42.53
2018-12-29T11:55:56.417Z,40.93
2018-12-29T11:58:25.196Z,37.90
2018-12-29T12:00:53.986Z,42.43
2018-12-29T12:03:22.726Z,39.10
2018-12-29T12:05:51.889Z,37.13
2018-12-29T12:08:20.629Z,40.40
2018-12-29T12:10:49.465Z,39.83
2018-12-29T12:13:18.250Z,41.20
2018-12-29T12:15:47.112Z,41.30
2018-12-29T12:18:16.581Z,38.93
2018-12-29T12:20:45.412Z,38.57
2018-12-29T12:23:14.128Z,39.67
2018-12-29T12:25:42.946Z,41.83
2018-12-29T12:28:11.714Z,38.57
2018-12-29T12:30:40.529Z,37.83
2018-12-29T12:33:09.498Z,37.30
2018-12-29T12:35:38.240Z,36.33
2018-12-29T12:38:07.326Z,38.73
2018-12-29T12:40:36.132Z,39.50
2018-12-29T12:43:04.960Z,39.53
2018-12-29T12:45:33.742Z,34.10
2018-12-29T12:48:05.179Z,36.13
2018-12-29T12:50:32.942Z,37.43
2018-12-29T12:53:01.742Z,34.53
2018-12-29T12:55:30.466Z,40.67
2018-12-29T12:57:59.468Z,39.77
2018-12-29T13:00:28.547Z,36.83
2018-12-29T13:02:57.534Z,40.30
2018-12-29T13:05:26.258Z,35.20
2018-12-29T13:07:55.048Z,41.30
2018-12-29T13:10:23.780Z,40.30
2018-12-29T13:12:52.575Z,38.03
2018-12-29T13:15:22.617Z,37.03
2018-12-29T13:17:51.337Z,39.43
2018-12-29T13:20:20.050Z,36.70
2018-12-29T13:22:48.778Z,39.57
2018-12-29T13:25:17.513Z,35.93
2018-12-29T13:27:46.240Z,37.00
2018-12-29T13:30:15.014Z,37.13
2018-12-29T13:32:43.797Z,33.93
2018-12-29T13:35:12.586Z,36.07
2018-12-29T13:37:41.363Z,39.13
2018-12-29T13:40:10.151Z,36.30
2018-12-29T13:42:38.903Z,32.70
2018-12-29T13:45:07.747Z,34.27
2018-12-29T13:47:36.480Z,37.50
2018-12-29T13:50:07.115Z,34.50
2018-12-29T13:52:35.925Z,32.00
2018-12-29T13:55:04.686Z,33.63
2018-12-29T13:57:33.762Z,33.93
2018-12-29T14:00:02.950Z,38.43
2018-12-29T14:02:31.738Z,34.40
2018-12-29T14:05:00.471Z,32.33
2018-12-29T14:07:29.201Z,33.00
2018-12-29T14:09:58.193Z,31.00
2018-12-29T14:12:28.005Z,29.17
2018-12-29T14:14:56.810Z,31.97
2018-12-29T14:17:25.578Z,30.80
2018-12-29T14:19:54.311Z,31.10
2018-12-29T14:22:23.085Z,31.37
2018-12-29T14:24:51.898Z,25.90
2018-12-29T14:27:20.600Z,26.67
2018-12-29T14:29:49.334Z,29.70
2018-12-29T14:32:18.137Z,26.77
2018-12-29T14:34:46.861Z,29.00
2018-12-29T14:37:15.635Z,31.83
2018-12-29T14:39:44.377Z,25.43
2018-12-29T14:42:13.182Z,31.90
2018-12-29T14:44:42.032Z,28.00
2018-12-29T14:47:10.763Z,26.53
2018-12-29T14:49:39.571Z,25.03
2018-12-29T14:52:08.273Z,27.70
2018-12-29T14:54:36.989Z,23.67
2018-12-29T14:57:06.082Z,29.63
2018-12-29T14:59:34.841Z,25.70
2018-12-29T15:02:03.698Z,26.43
2018-12-29T15:04:32.466Z,23.57
2018-12-29T15:07:01.193Z,25.27
2018-12-29T15:09:30.285Z,24.70
2018-12-29T15:11:59.072Z,24.47
2018-12-29T15:14:27.865Z,24.20
2018-12-29T15:16:56.661Z,22.53
2018-12-29T15:19:25.428Z,24.00
2018-12-29T15:21:54.242Z,24.10
2018-12-29T15:24:22.938Z,23.60
2018-12-29T15:26:51.757Z,24.57
2018-12-29T15:29:20.833Z,26.73
2018-12-29T15:31:49.686Z,30.20
2018-12-29T15:34:18.503Z,22.93
2018-12-29T15:36:47.273Z,26.80
2018-12-29T15:39:16.081Z,31.13
2018-12-29T15:41:44.850Z,24.57
2018-12-29T15:44:13.676Z,27.67
2018-12-29T15:46:42.467Z,26.67
2018-12-29T15:49:11.269Z,26.30
2018-12-29T15:51:40.033Z,26.63
2018-12-29T15:54:08.796Z,25.97
2018-12-29T15:56:37.954Z,27.10
2018-12-29T15:59:08.305Z,25.93
2018-12-29T16:01:37.071Z,26.37
2018-12-29T16:04:05.870Z,25.27
2018-12-29T16:06:34.648Z,25.57
2018-12-29T16:09:04.906Z,27.87
2018-12-29T16:11:33.980Z,23.37
2018-12-29T16:14:02.777Z,28.77
2018-12-29T16:16:31.758Z,27.40
2018-12-29T16:19:02.137Z,24.13
2018-12-29T16:21:30.918Z,23.10
2018-12-29T16:23:59.738Z,22.53
2018-12-29T16:26:28.536Z,26.07
2018-12-29T16:28:57.337Z,29.23
2018-12-29T16:31:26.153Z,25.10
2018-12-29T16:33:54.909Z,26.33
2018-12-29T16:36:23.714Z,31.27
2018-12-29T16:38:52.418Z,27.77
2018-12-29T16:41:21.226Z,25.47
2018-12-29T16:43:50.210Z,25.37
2018-12-29T16:46:18.949Z,27.07
2018-12-29T16:48:47.724Z,28.67
2018-12-29T16:51:19.213Z,26.03
2018-12-29T16:53:48.086Z,25.57
2018-12-29T16:56:16.904Z,22.60
2018-12-29T16:58:45.689Z,26.07
2018-12-29T17:01:14.493Z,22.23
2018-12-29T17:03:43.554Z,23.83
2018-12-29T17:06:12.350Z,21.20
2018-12-29T17:08:41.126Z,24.07
2018-12-29T17:11:09.913Z,24.60
2018-12-29T17:13:38.978Z,22.03
2018-12-29T17:16:07.868Z,23.97
2018-12-29T17:18:36.665Z,28.57
2018-12-29T17:21:05.645Z,25.10
2018-12-29T17:23:34.466Z,24.53
2018-12-29T17:26:03.247Z,24.33
2018-12-29T17:28:32.369Z,28.97
2018-12-29T17:31:01.153Z,25.47
2018-12-29T17:33:30.037Z,29.03
2018-12-29T17:35:58.809Z,27.47
2018-12-29T17:38:27.618Z,24.30
2018-12-29T17:40:56.400Z,26.43
2018-12-29T17:43:25.206Z,26.70
2018-12-29T17:45:53.983Z,25.00
2018-12-29T17:48:22.789Z,24.93
2018-12-29T17:50:51.493Z,26.80
2018-12-29T17:53:20.620Z,28.53
2018-12-29T17:55:50.924Z,27.40
2018-12-29T17:58:19.700Z,28.73
2018-12-29T18:00:48.493Z,31.10
2018-12-29T18:03:17.313Z,28.07
2018-12-29T18:05:46.013Z,29.97
2018-12-29T18:08:14.779Z,29.47
2018-12-29T18:10:43.592Z,32.47
2018-12-29T18:13:12.365Z,29.47
2018-12-29T18:15:41.172Z,38.30
2018-12-29T18:18:09.953Z,33.13
2018-12-29T18:20:38.995Z,35.07
2018-12-29T18:23:07.767Z,35.67
2018-12-29T18:25:36.568Z,35.13
2018-12-29T18:28:05.354Z,38.40
2018-12-29T18:30:34.451Z,37.37
2018-12-29T18:33:03.233Z,39.27
2018-12-29T18:35:32.051Z,38.87
2018-12-29T18:38:00.843Z,42.30
2018-12-29T18:40:29.618Z,42.03
2018-12-29T18:42:58.410Z,46.10
2018-12-29T18:45:27.563Z,43.80
2018-12-29T18:47:56.373Z,41.43
2018-12-29T18:50:25.259Z,43.27
2018-12-29T18:52:54.042Z,47.73
2018-12-29T18:55:22.818Z,42.70
2018-12-29T18:57:51.825Z,46.13
2018-12-29T19:00:20.599Z,46.40
2018-12-29T19:02:49.413Z,46.90
2018-12-29T19:05:18.251Z,44.33
2018-12-29T19:07:47.062Z,44.20
2018-12-29T19:10:15.849Z,46.03
2018-12-29T19:12:44.666Z,51.23
2018-12-29T19:15:13.522Z,45.03
2018-12-29T19:17:42.628Z,52.00
2018-12-29T19:20:11.619Z,54.20
2018-12-29T19:22:40.402Z,52.13
2018-12-29T19:25:09.217Z,49.00
2018-12-29T19:27:38.026Z,52.23
2018-12-29T19:30:07.354Z,50.97
2018-12-29T19:32:36.141Z,53.87
2018-12-29T19:35:05.417Z,51.53
2018-12-29T19:37:34.499Z,54.30
2018-12-29T19:40:04.952Z,49.43
2018-12-29T19:42:33.742Z,52.23
2018-12-29T19:45:02.617Z,57.83
2018-12-29T19:47:31.409Z,56.83
2018-12-29T19:50:00.316Z,60.27
2018-12-29T19:52:29.086Z,56.37
2018-12-29T19:54:57.843Z,52.03
2018-12-29T19:57:26.934Z,53.63
2018-12-29T19:59:55.729Z,52.00
2018-12-29T20:02:24.801Z,52.90
2018-12-29T20:04:53.717Z,53.47
2018-12-29T20:07:22.805Z,53.10
2018-12-29T20:09:51.637Z,48.33
2018-12-29T20:12:20.425Z,52.47
2018-12-29T20:14:49.134Z,49.07
2018-12-29T20:17:17.836Z,50.57
2018-12-29T20:19:46.740Z,51.93
2018-12-29T20:22:15.626Z,46.47
2018-12-29T20:24:44.432Z,44.47
2018-12-29T20:27:13.209Z,47.93
2018-12-29T20:29:41.946Z,50.63
2018-12-29T20:32:10.650Z,47.30
2018-12-29T20:34:39.362Z,48.50
2018-12-29T20:37:08.057Z,50.73
2018-12-29T20:39:36.790Z,46.97
2018-12-29T20:42:05.576Z,39.53
2018-12-29T20:44:34.365Z,42.03
2018-12-29T20:47:03.339Z,40.87
2018-12-29T20:49:32.122Z,34.57
2018-12-29T20:52:01.821Z,36.53
2018-12-29T20:54:30.568Z,32.80
2018-12-29T20:56:59.377Z,35.77
2018-12-29T20:59:28.354Z,30.67
2018-12-29T21:01:57.154Z,32.63
2018-12-29T21:04:25.868Z,29.67
2018-12-29T21:06:54.672Z,34.33
2018-12-29T21:09:23.448Z,35.83
2018-12-29T21:11:52.238Z,31.60
2018-12-29T21:14:21.027Z,28.70
2018-12-29T21:16:49.836Z,30.57
2018-12-29T21:19:18.634Z,27.60
2018-12-29T21:21:47.442Z,24.33
2018-12-29T21:24:16.233Z,27.60
2018-12-29T21:26:45.319Z,23.70
2018-12-29T21:29:14.110Z,28.57
2018-12-29T21:31:42.893Z,19.93
2018-12-29T21:34:11.650Z,25.37
2018-12-29T21:36:40.361Z,17.57
2018-12-29T21:39:09.166Z,19.33
2018-12-29T21:41:39.355Z,22.63
2018-12-29T21:44:08.168Z,20.87
2018-12-29T21:46:36.945Z,22.60
2018-12-29T21:49:05.663Z,14.70
2018-12-29T21:51:34.371Z,16.37
2018-12-29T21:54:03.477Z,12.73
2018-12-29T21:56:32.279Z,14.10
2018-12-29T21:59:01.084Z,13.50
2018-12-29T22:01:29.875Z,18.30
2018-12-29T22:03:58.910Z,17.03
2018-12-29T22:06:27.688Z,14.93
2018-12-29T22:08:56.693Z,19.30
2018-12-29T22:11:26.070Z,14.90
2018-12-29T22:13:55.422Z,17.50
2018-12-29T22:16:24.183Z,15.53
2018-12-29T22:18:53.029Z,20.07
2018-12-29T22:21:22.079Z,20.27
2018-12-29T22:23:50.786Z,17.83
2018-12-29T22:26:19.662Z,19.70
2018-12-29T22:28:48.671Z,17.03
2018-12-29T22:31:18.926Z,19.30
2018-12-29T22:33:48.028Z,18.83
2018-12-29T22:36:17.256Z,18.43
2018-12-29T22:38:46.029Z,20.97
2018-12-29T22:41:15.070Z,14.80
2018-12-29T22:43:44.219Z,17.23
2018-12-29T22:46:13.132Z,20.20
2018-12-29T22:48:41.917Z,19.37
2018-12-29T22:51:10.719Z,19.83
2018-12-29T22:53:39.505Z,23.63
2018-12-29T22:56:08.336Z,18.87
2018-12-29T22:58:37.184Z,19.20
2018-12-29T23:01:06.147Z,15.67
2018-12-29T23:03:35.146Z,19.60
2018-12-29T23:06:05.344Z,21.90
2018-12-29T23:08:34.355Z,20.60
2018-12-29T23:11:03.609Z,15.03
2018-12-29T23:13:32.366Z,12.43
2018-12-29T23:16:01.087Z,24.60
2018-12-29T23:18:29.881Z,14.63
2018-12-29T23:20:58.606Z,18.10
2018-12-29T23:23:27.438Z,14.63
2018-12-29T23:25:56.569Z,13.83
2018-12-29T23:28:25.332Z,17.40
2018-12-29T23:30:54.434Z,16.77
2018-12-29T23:33:23.195Z,13.53
2018-12-29T23:35:51.920Z,14.17
2018-12-29T23:38:20.723Z,22.97
2018-12-29T23:40:49.561Z,21.13
2018-12-29T23:43:18.291Z,23.03
2018-12-29T23:45:48.001Z,12.30
2018-12-29T23:48:16.930Z,21.77
2018-12-29T23:50:45.682Z,14.87
2018-12-29T23:53:14.475Z,18.63
2018-12-29T23:55:43.621Z,21.23
2018-12-29T23:58:12.400Z,16.73
